Time;durP1;ratioP1;P1;durP2;ratioP2;P2;SDS_P1;SDS_P2;PMS_P1;PMS_P2;Temp;Humidity;BMP_temperature;BMP_pressure;BME280_temperature;BME280_humidity;BME280_pressure;Samples;Min_cycle;Max_cycle;Signal;HPM_P1;HPM_P2
2023/05/10 00:04:35;;;;;;;12.43;8.77;;;;;;;14.80;85.89;99530.25;10350057;28;20062;-75
2023/05/10 00:09:38;;;;;;;11.73;10.35;;;;;;;14.92;86.49;99524.47;10342713;28;20068;-76
2023/05/10 00:14:41;;;;;;;11.57;9.65;;;;;;;14.85;84.89;99520.78;10352424;28;20065;-76
2023/05/10 00:19:45;;;;;;;12.25;10.30;;;;;;;14.70;85.95;99518.81;10345123;28;20117;-77
2023/05/10 00:24:48;;;;;;;10.75;9.65;;;;;;;14.77;86.68;99511.69;10331734;28;20038;-77
2023/05/10 00:29:51;;;;;;;11.48;9.13;;;;;;;14.64;85.99;99519.47;10335442;28;20085;-76
2023/05/10 00:34:55;;;;;;;10.93;9.77;;;;;;;14.60;86.74;99510.88;10337304;28;20049;-77
2023/05/10 00:39:58;;;;;;;10.77;9.68;;;;;;;14.68;87.58;99501.91;10358961;28;20394;-77
2023/05/10 00:45:02;;;;;;;12.02;10.50;;;;;;;14.78;87.43;99501.69;10338979;28;20070;-77
2023/05/10 00:50:08;;;;;;;16.55;11.07;;;;;;;14.72;87.60;99503.25;10338724;28;20654;-77
2023/05/10 00:55:12;;;;;;;12.90;10.82;;;;;;;14.67;87.57;99491.25;10339896;28;20038;-76
2023/05/10 01:00:18;;;;;;;13.18;10.77;;;;;;;14.44;86.35;99496.53;10340035;28;20038;-76
2023/05/10 01:05:22;;;;;;;13.85;11.57;;;;;;;14.27;86.91;99501.09;10333252;28;20452;-78
2023/05/10 01:10:26;;;;;;;15.15;12.10;;;;;;;14.22;87.15;99495.34;10344127;28;20125;-77
2023/05/10 01:15:28;;;;;;;15.35;12.98;;;;;;;14.29;88.44;99486.41;10332486;28;20043;-76
2023/05/10 01:20:40;;;;;;;17.73;12.30;;;;;;;14.44;88.28;99491.97;10329470;28;20058;-77
2023/05/10 01:26:25;;;;;;;18.30;13.00;;;;;;;14.32;87.58;99480.66;10327693;28;20038;-77
2023/05/10 01:31:43;;;;;;;17.23;12.70;;;;;;;14.20;87.48;99487.41;10333715;28;20083;-76
2023/05/10 01:36:53;;;;;;;15.90;12.85;;;;;;;14.16;87.84;99486.06;10336616;28;20046;-77
2023/05/10 01:42:02;;;;;;;21.23;15.00;;;;;;;13.69;88.22;99489.44;10337409;28;20046;-76
2023/05/10 01:47:09;;;;;;;22.23;14.73;;;;;;;13.95;88.61;99491.97;10333650;28;20409;-77
2023/05/10 01:52:17;;;;;;;19.02;13.70;;;;;;;13.77;87.54;99492.13;10338463;28;20085;-76
2023/05/10 01:57:22;;;;;;;21.63;13.50;;;;;;;13.55;89.18;99488.22;10335185;28;20058;-76
2023/05/10 02:02:28;;;;;;;20.85;14.57;;;;;;;13.78;89.44;99477.63;10355589;28;20569;-76
2023/05/10 02:07:34;;;;;;;22.88;15.75;;;;;;;13.92;89.02;99482.34;10346664;28;20045;-77
2023/05/10 02:12:40;;;;;;;36.05;17.50;;;;;;;13.96;89.97;99480.19;10343264;28;20054;-76
2023/05/10 02:17:44;;;;;;;22.15;16.45;;;;;;;13.84;89.47;99486.91;10351811;28;20145;-76
2023/05/10 02:22:50;;;;;;;22.55;16.05;;;;;;;13.54;90.06;99486.50;10338184;28;20042;-76
2023/05/10 02:27:55;;;;;;;18.33;13.13;;;;;;;13.42;89.96;99495.94;10357332;28;20042;-76
2023/05/10 02:32:58;;;;;;;17.02;12.15;;;;;;;13.09;91.14;99506.56;10341287;28;20057;-76
2023/05/10 02:38:03;;;;;;;14.07;10.25;;;;;;;13.28;90.28;99508.16;10337659;28;20036;-76
2023/05/10 02:43:10;;;;;;;10.38;8.15;;;;;;;13.18;89.61;99507.44;10342767;28;20125;-77
2023/05/10 02:48:13;;;;;;;9.68;6.88;;;;;;;13.23;89.75;99507.81;10339532;28;20042;-76
2023/05/10 02:53:21;;;;;;;8.02;5.05;;;;;;;13.18;88.64;99502.91;10345197;28;20046;-76
2023/05/10 02:58:25;;;;;;;8.68;4.95;;;;;;;12.92;90.12;99502.97;10340059;28;20042;-76
2023/05/10 03:03:28;;;;;;;5.57;4.97;;;;;;;13.03;89.56;99505.38;10354393;28;20062;-77
2023/05/10 03:08:32;;;;;;;6.25;5.30;;;;;;;13.03;89.08;99505.38;10360770;28;20042;-74
2023/05/10 03:13:43;;;;;;;6.03;5.35;;;;;;;13.09;89.17;99511.13;10339712;28;20126;-76
2023/05/10 03:18:55;;;;;;;6.20;5.60;;;;;;;13.10;89.12;99512.81;10357297;28;20085;-76
2023/05/10 03:24:06;;;;;;;7.30;6.27;;;;;;;13.08;89.23;99514.81;10348140;28;20501;-77
2023/05/10 03:29:12;;;;;;;10.20;8.00;;;;;;;13.18;89.86;99516.38;10357477;28;20137;-76
2023/05/10 03:34:15;;;;;;;9.38;8.30;;;;;;;13.21;89.33;99507.13;10341357;28;20128;-77
2023/05/10 03:39:21;;;;;;;12.32;8.98;;;;;;;13.19;89.58;99517.22;10368511;22;20137;-76
2023/05/10 03:44:28;;;;;;;10.68;8.70;;;;;;;13.16;89.01;99523.78;10331762;28;20053;-76
2023/05/10 03:49:32;;;;;;;12.82;9.40;;;;;;;13.10;89.73;99526.28;10330943;28;20049;-76
2023/05/10 03:54:36;;;;;;;13.13;7.40;;;;;;;12.49;91.35;99526.28;10331934;28;20464;-78
2023/05/10 03:59:40;;;;;;;12.23;9.30;;;;;;;12.71;91.74;99527.59;10329367;28;20073;-77
2023/05/10 04:04:43;;;;;;;12.13;10.10;;;;;;;12.68;90.62;99540.56;10335586;28;20046;-77
2023/05/10 04:09:48;;;;;;;14.05;10.43;;;;;;;12.64;91.14;99537.31;10330042;28;20057;-78
2023/05/10 04:14:51;;;;;;;11.85;8.70;;;;;;;12.73;90.98;99538.22;10332066;28;20516;-76
2023/05/10 04:19:54;;;;;;;9.68;7.50;;;;;;;12.59;91.25;99540.50;10323502;28;20050;-76
2023/05/10 04:24:58;;;;;;;9.48;7.55;;;;;;;12.68;91.61;99541.38;10314474;28;20109;-77
2023/05/10 04:30:02;;;;;;;9.60;6.07;;;;;;;12.56;90.94;99548.91;10322579;28;20042;-77
2023/05/10 04:35:05;;;;;;;5.97;4.97;;;;;;;12.14;92.35;99552.22;10323780;28;20062;-76
2023/05/10 04:40:10;;;;;;;2.45;2.25;;;;;;;11.57;95.56;99559.72;10332337;28;20042;-76
2023/05/10 04:45:14;;;;;;;2.85;1.23;;;;;;;11.30;94.44;99567.78;10327455;28;20118;-75
2023/05/10 04:50:17;;;;;;;1.77;1.13;;;;;;;11.48;95.04;99577.59;10331145;28;20042;-73
2023/05/10 04:55:22;;;;;;;2.10;1.90;;;;;;;11.67;94.14;99584.72;10327764;28;20045;-75
2023/05/10 05:00:26;;;;;;;2.88;2.58;;;;;;;11.71;93.76;99588.81;10314030;28;20395;-77
2023/05/10 05:05:28;;;;;;;5.85;3.13;;;;;;;11.46;94.72;99598.44;10335692;28;20476;-74
2023/05/10 05:10:32;;;;;;;4.35;3.55;;;;;;;11.59;94.45;99602.59;10328488;28;20112;-74
2023/05/10 05:15:35;;;;;;;3.83;3.50;;;;;;;11.44;94.27;99608.50;10324329;28;20045;-79
2023/05/10 05:20:38;;;;;;;3.38;2.97;;;;;;;11.77;93.63;99616.94;10326044;28;20432;-75
2023/05/10 05:25:42;;;;;;;4.25;3.90;;;;;;;12.01;92.52;99624.41;10329497;28;20066;-73
2023/05/10 05:30:45;;;;;;;5.07;4.57;;;;;;;11.91;92.98;99627.19;10329140;28;20089;-74
2023/05/10 05:35:50;;;;;;;5.68;4.30;;;;;;;12.11;91.66;99635.13;10329519;28;20142;-76
2023/05/10 05:40:54;;;;;;;3.65;3.40;;;;;;;12.00;92.27;99646.13;10327581;28;20183;-76
2023/05/10 05:45:58;;;;;;;3.03;2.75;;;;;;;12.14;91.43;99653.66;10328736;28;20073;-74
2023/05/10 05:51:01;;;;;;;3.15;2.85;;;;;;;12.00;92.23;99657.72;10339125;28;20049;-74
2023/05/10 05:56:06;;;;;;;3.58;3.28;;;;;;;12.18;91.00;99660.47;10334857;28;20038;-74
2023/05/10 06:01:09;;;;;;;4.28;3.50;;;;;;;12.27;91.92;99669.47;10334258;28;20057;-74
2023/05/10 06:06:12;;;;;;;3.58;3.28;;;;;;;12.27;91.39;99672.16;10333609;28;20457;-73
2023/05/10 06:11:16;;;;;;;6.35;5.30;;;;;;;12.00;91.74;99681.13;10306784;28;20059;-75
2023/05/10 06:16:19;;;;;;;6.22;5.07;;;;;;;11.78;93.16;99693.97;10300326;28;20046;-74
2023/05/10 06:21:22;;;;;;;5.68;4.97;;;;;;;11.75;93.96;99705.03;10300946;28;20057;-74
2023/05/10 06:26:26;;;;;;;10.52;5.63;;;;;;;11.96;92.52;99710.19;10313544;28;20442;-74
2023/05/10 06:31:29;;;;;;;6.60;4.47;;;;;;;12.02;91.41;99712.28;10301567;28;20046;-74
2023/05/10 06:36:32;;;;;;;5.95;5.05;;;;;;;12.01;92.16;99713.25;10311900;28;20072;-74
2023/05/10 06:41:36;;;;;;;5.20;4.43;;;;;;;12.03;92.27;99719.34;10302391;28;20053;-74
2023/05/10 06:46:39;;;;;;;7.28;4.97;;;;;;;11.89;92.59;99731.44;10303259;28;20041;-74
2023/05/10 06:51:42;;;;;;;6.25;4.70;;;;;;;11.55;94.43;99736.53;10297700;28;20280;-74
2023/05/10 06:56:46;;;;;;;5.68;5.03;;;;;;;12.14;92.65;99739.81;10296139;28;20566;-74
2023/05/10 07:01:49;;;;;;;10.55;4.43;;;;;;;12.14;92.70;99740.66;10301487;28;20046;-74
2023/05/10 07:06:52;;;;;;;7.45;4.03;;;;;;;12.15;90.39;99746.91;10295612;28;20077;-74
2023/05/10 07:11:57;;;;;;;6.38;4.57;;;;;;;12.59;90.20;99756.03;10294610;28;20046;-74
2023/05/10 07:16:59;;;;;;;5.50;4.60;;;;;;;12.31;90.56;99749.84;10296656;28;20060;-75
2023/05/10 07:22:02;;;;;;;5.25;3.53;;;;;;;12.28;89.44;99760.88;10296356;28;20057;-74
2023/05/10 07:27:07;;;;;;;6.32;3.78;;;;;;;12.60;88.59;99756.88;10303326;28;20189;-75
2023/05/10 07:32:09;;;;;;;5.93;4.10;;;;;;;12.77;88.72;99758.72;10300585;28;20061;-75
2023/05/10 07:37:12;;;;;;;4.93;4.38;;;;;;;13.27;87.68;99771.63;10292810;28;20054;-75
2023/05/10 07:42:16;;;;;;;5.35;4.00;;;;;;;13.46;84.78;99769.75;10297344;28;20052;-75
2023/05/10 07:47:19;;;;;;;5.47;4.35;;;;;;;13.18;82.88;99771.72;10293527;28;20077;-75
2023/05/10 07:52:22;;;;;;;5.68;4.60;;;;;;;13.26;84.81;99779.88;10296744;28;20049;-75
2023/05/10 07:57:26;;;;;;;9.98;5.72;;;;;;;13.27;83.73;99774.34;10291504;28;20508;-75
2023/05/10 08:02:29;;;;;;;9.45;6.47;;;;;;;13.00;83.60;99780.69;10302166;28;20062;-75
2023/05/10 08:07:33;;;;;;;8.15;5.95;;;;;;;13.04;84.55;99784.75;10316239;28;20054;-75
2023/05/10 08:12:37;;;;;;;11.73;7.25;;;;;;;13.49;84.78;99789.19;10292221;28;20065;-76
2023/05/10 08:17:40;;;;;;;12.38;8.02;;;;;;;13.77;83.13;99790.88;10296664;28;20058;-75
2023/05/10 08:22:43;;;;;;;15.30;8.88;;;;;;;13.65;83.40;99793.00;10295466;28;20133;-76
2023/05/10 08:27:47;;;;;;;14.95;10.00;;;;;;;13.33;81.85;99797.13;10295981;28;20073;-75
2023/05/10 08:32:50;;;;;;;13.20;8.40;;;;;;;13.59;81.49;99801.72;10297225;28;20409;-76
2023/05/10 08:37:53;;;;;;;18.02;12.00;;;;;;;14.06;82.89;99807.56;10288629;28;20046;-75
2023/05/10 08:43:05;;;;;;;20.38;10.93;;;;;;;14.38;81.90;99809.63;10292794;28;20513;-76
2023/05/10 08:48:09;;;;;;;19.98;12.15;;;;;;;13.87;80.18;99816.75;10291880;28;20053;-75
2023/05/10 08:53:13;;;;;;;25.33;13.18;;;;;;;14.29;79.01;99817.81;10294847;28;20053;-76
2023/05/10 08:58:19;;;;;;;22.17;11.50;;;;;;;15.15;74.62;99811.31;10307737;28;20129;-75
2023/05/10 09:03:22;;;;;;;18.73;12.18;;;;;;;15.86;74.48;99815.19;10297150;28;20090;-76
2023/05/10 09:08:26;;;;;;;19.13;11.27;;;;;;;15.78;72.69;99821.47;10294475;28;20613;-76
2023/05/10 09:13:30;;;;;;;19.17;12.10;;;;;;;15.07;74.81;99832.94;10297165;28;20049;-76
2023/05/10 09:18:33;;;;;;;21.65;13.35;;;;;;;14.75;76.54;99837.25;10289268;28;20050;-74
2023/05/10 09:23:36;;;;;;;23.83;13.25;;;;;;;14.79;79.65;99838.63;10297202;28;20046;-75
2023/05/10 09:28:53;;;;;;;23.13;13.98;;;;;;;14.35;79.13;99845.03;10302897;28;20527;-75
2023/05/10 09:33:56;;;;;;;27.20;15.38;;;;;;;13.70;84.23;99856.28;10302451;28;20069;-74
2023/05/10 09:38:59;;;;;;;20.35;9.27;;;;;;;12.51;87.82;99862.84;10305016;28;20057;-73
2023/05/10 09:44:03;;;;;;;25.80;13.25;;;;;;;13.15;89.60;99864.56;10295934;28;20188;-73
2023/05/10 09:49:06;;;;;;;25.20;12.05;;;;;;;13.62;87.77;99863.47;10299583;28;20053;-76
2023/05/10 09:54:10;;;;;;;19.63;11.27;;;;;;;13.88;87.38;99869.75;10296907;28;20065;-76
2023/05/10 09:59:15;;;;;;;23.63;13.27;;;;;;;14.26;86.89;99864.91;10305113;28;20057;-73
2023/05/10 10:04:18;;;;;;;21.55;13.27;;;;;;;14.99;87.22;99863.50;10303058;28;20057;-75
2023/05/10 10:09:21;;;;;;;21.05;13.77;;;;;;;15.66;83.44;99850.75;10309535;28;20161;-74
2023/05/10 10:14:25;;;;;;;21.42;12.90;;;;;;;16.00;76.47;99867.81;10303814;28;20046;-74
2023/05/10 10:19:29;;;;;;;17.02;12.25;;;;;;;15.88;75.57;99856.50;10305120;28;20453;-74
2023/05/10 10:24:32;;;;;;;17.58;11.23;;;;;;;16.53;73.55;99850.03;10316472;28;20437;-73
2023/05/10 10:29:42;;;;;;;16.55;11.18;;;;;;;17.29;71.47;99853.88;10308365;28;20053;-73
2023/05/10 10:34:45;;;;;;;16.33;10.73;;;;;;;16.42;71.77;99842.31;10310027;28;20045;-74
2023/05/10 10:39:49;;;;;;;17.15;9.30;;;;;;;16.69;66.42;99847.25;10302707;28;20062;-74
2023/05/10 10:45:13;;;;;;;15.82;8.80;;;;;;;17.15;68.77;99847.38;10301312;28;20058;-74
2023/05/10 10:50:16;;;;;;;10.23;7.75;;;;;;;17.63;66.15;99850.69;10296417;28;20065;-74
2023/05/10 10:55:23;;;;;;;11.30;6.18;;;;;;;17.68;61.40;99852.88;10297448;28;20053;-74
2023/05/10 11:00:32;;;;;;;10.57;6.65;;;;;;;17.56;63.40;99841.63;10315357;28;20605;-74
2023/05/10 11:05:38;;;;;;;12.15;7.70;;;;;;;17.96;66.03;99846.84;10307228;28;20052;-74
2023/05/10 11:10:51;;;;;;;12.15;6.63;;;;;;;18.93;59.89;99844.03;10313798;28;20065;-74
2023/05/10 11:15:56;;;;;;;9.77;6.13;;;;;;;19.05;56.84;99838.91;10297272;28;20476;-75
2023/05/10 11:21:02;;;;;;;6.93;4.40;;;;;;;18.20;58.61;99848.47;10293266;28;20461;-75
2023/05/10 11:26:09;;;;;;;10.13;5.28;;;;;;;19.01;56.22;99842.03;10290018;28;20084;-75
2023/05/10 11:31:14;;;;;;;6.80;4.68;;;;;;;18.28;58.43;99848.38;10305988;28;21419;-74
2023/05/10 11:36:19;;;;;;;5.95;4.00;;;;;;;19.41;54.58;99852.47;10294005;28;20498;-74
2023/05/10 11:41:23;;;;;;;5.97;3.75;;;;;;;18.87;55.93;99847.50;10302989;28;20053;-74
2023/05/10 11:46:29;;;;;;;7.03;4.35;;;;;;;20.03;54.96;99842.75;10295067;28;20060;-75
2023/05/10 11:51:35;;;;;;;5.13;4.13;;;;;;;21.32;48.15;99834.72;10291934;28;20520;-74
2023/05/10 11:56:38;;;;;;;10.68;5.50;;;;;;;21.13;48.84;99843.72;10303516;28;20053;-75
2023/05/10 12:01:42;;;;;;;8.20;5.78;;;;;;;19.17;54.68;99857.28;10299391;28;20060;-75
2023/05/10 12:06:46;;;;;;;8.85;4.35;;;;;;;18.23;54.43;99857.09;10295987;28;20691;-75
2023/05/10 12:11:49;;;;;;;10.13;5.47;;;;;;;18.23;54.96;99859.81;10292513;28;20050;-75
2023/05/10 12:16:53;;;;;;;9.20;5.25;;;;;;;18.62;54.74;99864.09;10293215;28;20106;-75
2023/05/10 12:21:56;;;;;;;7.40;5.35;;;;;;;18.51;54.40;99872.75;10293720;28;20042;-75
2023/05/10 12:26:59;;;;;;;7.80;5.68;;;;;;;18.30;56.51;99882.50;10298055;28;20132;-74
2023/05/10 12:32:03;;;;;;;9.77;5.78;;;;;;;17.36;58.15;99884.72;10292979;28;21520;-74
2023/05/10 12:37:06;;;;;;;12.98;7.25;;;;;;;17.31;59.74;99889.00;10290929;28;20413;-74
2023/05/10 12:42:10;;;;;;;9.68;6.32;;;;;;;17.52;57.76;99885.59;10292920;28;20129;-74
2023/05/10 12:47:14;;;;;;;9.63;6.03;;;;;;;18.15;55.88;99895.25;10296504;28;20050;-74
2023/05/10 12:52:17;;;;;;;11.13;6.95;;;;;;;19.76;53.73;99894.31;10298063;28;20225;-74
2023/05/10 12:57:21;;;;;;;15.48;8.55;;;;;;;19.35;55.52;99905.00;10296326;28;20050;-75
2023/05/10 13:02:25;;;;;;;13.77;8.38;;;;;;;19.20;57.75;99913.22;10292716;28;20164;-75
2023/05/10 13:07:28;;;;;;;13.40;10.10;;;;;;;19.61;56.77;99897.13;10299636;28;20136;-75
2023/05/10 13:12:31;;;;;;;15.57;9.80;;;;;;;19.95;55.63;99898.25;10291518;28;20191;-75
2023/05/10 13:17:35;;;;;;;15.98;10.02;;;;;;;20.49;54.22;99897.59;10287705;28;20516;-75
2023/05/10 13:22:38;;;;;;;16.65;8.45;;;;;;;21.13;50.75;99899.16;10288235;28;20054;-75
2023/05/10 13:27:42;;;;;;;13.02;9.00;;;;;;;21.21;49.94;99898.97;10289239;28;20068;-75
2023/05/10 13:32:46;;;;;;;12.13;7.70;;;;;;;21.26;49.47;99906.56;10287558;28;20058;-75
2023/05/10 13:37:49;;;;;;;14.15;8.85;;;;;;;20.58;52.13;99901.00;10291972;28;20402;-75
2023/05/10 13:42:52;;;;;;;13.80;9.27;;;;;;;18.94;55.28;99906.41;10286247;28;20123;-75
2023/05/10 13:47:57;;;;;;;16.77;9.05;;;;;;;17.92;58.39;99915.13;10303198;28;20124;-75
2023/05/10 13:53:00;;;;;;;19.20;10.73;;;;;;;17.23;63.06;99930.59;10285996;28;20506;-75
2023/05/10 13:58:02;;;;;;;12.10;7.63;;;;;;;15.00;67.27;99949.91;10299386;28;20724;-75
2023/05/10 14:03:08;;;;;;;12.55;8.10;;;;;;;15.45;66.10;99943.28;10320798;28;20145;-74
2023/05/10 14:08:12;;;;;;;13.68;9.32;;;;;;;15.14;69.43;99953.84;10291887;28;20540;-74
2023/05/10 14:13:16;;;;;;;17.15;11.00;;;;;;;14.99;72.30;99953.59;10296444;28;20386;-74
2023/05/10 14:18:20;;;;;;;20.02;12.20;;;;;;;14.76;76.08;99966.03;10293036;28;20422;-74
2023/05/10 14:23:24;;;;;;;26.05;13.05;;;;;;;14.23;77.53;99978.66;10297428;28;20043;-75
2023/05/10 14:28:27;;;;;;;26.50;15.00;;;;;;;14.45;79.87;99971.06;10300599;28;21214;-75
2023/05/10 14:33:31;;;;;;;22.02;12.75;;;;;;;14.44;80.06;99964.00;10295431;28;20080;-75
2023/05/10 14:38:34;;;;;;;22.00;12.35;;;;;;;14.61;78.97;99960.38;10314544;28;20074;-74
2023/05/10 14:43:37;;;;;;;16.77;11.05;;;;;;;14.48;78.49;99958.13;10299642;28;20050;-75
2023/05/10 14:48:41;;;;;;;17.90;10.85;;;;;;;14.55;79.38;99963.72;10298674;28;20636;-75
2023/05/10 14:53:44;;;;;;;19.55;11.77;;;;;;;14.79;79.05;99953.03;10296948;28;20078;-75
2023/05/10 14:58:47;;;;;;;19.10;12.63;;;;;;;14.90;78.43;99962.72;10297270;28;20054;-75
2023/05/10 15:03:51;;;;;;;20.55;12.55;;;;;;;15.09;78.81;99958.91;10296165;28;20061;-74
2023/05/10 15:08:55;;;;;;;23.48;13.90;;;;;;;15.55;78.66;99963.91;10298058;28;20058;-75
2023/05/10 15:13:57;;;;;;;23.33;14.40;;;;;;;15.88;77.94;99970.25;10301595;28;20077;-75
2023/05/10 15:19:02;;;;;;;23.80;14.70;;;;;;;15.96;76.15;99967.50;10298951;28;20447;-73
2023/05/10 15:24:05;;;;;;;24.42;15.65;;;;;;;16.07;73.56;99966.31;10298031;28;20045;-75
2023/05/10 15:29:08;;;;;;;23.48;14.15;;;;;;;16.09;74.63;99967.00;10290891;28;20510;-75
2023/05/10 15:34:12;;;;;;;22.45;14.82;;;;;;;16.13;72.95;99963.78;10294024;28;20628;-74
2023/05/10 15:39:15;;;;;;;26.33;14.68;;;;;;;16.09;72.47;99965.13;10298644;28;20065;-74
2023/05/10 15:44:18;;;;;;;21.65;14.60;;;;;;;16.32;72.51;99978.88;10296699;28;20043;-77
2023/05/10 15:49:22;;;;;;;24.75;15.43;;;;;;;16.39;72.65;99986.31;10309870;28;20057;-74
2023/05/10 15:54:25;;;;;;;21.17;13.90;;;;;;;16.72;71.91;100003.34;10293169;28;20058;-75
2023/05/10 15:59:28;;;;;;;22.60;14.15;;;;;;;15.89;71.04;100012.53;10295224;28;20054;-74
2023/05/10 16:04:32;;;;;;;22.45;14.18;;;;;;;15.87;71.29;100017.28;10297856;28;20168;-75
2023/05/10 16:09:35;;;;;;;20.55;12.18;;;;;;;15.77;70.13;100013.88;10296424;28;20056;-75
2023/05/10 16:14:38;;;;;;;24.60;12.38;;;;;;;15.70;70.28;100025.38;10302736;28;20058;-75
2023/05/10 16:19:42;;;;;;;21.42;13.05;;;;;;;15.39;70.73;100029.72;10299950;28;20690;-75
2023/05/10 16:24:45;;;;;;;17.85;12.95;;;;;;;15.46;70.41;100031.56;10290389;28;20197;-75
2023/05/10 16:29:48;;;;;;;21.52;13.18;;;;;;;15.41;70.04;100036.66;10284330;28;20098;-75
2023/05/10 16:34:53;;;;;;;22.20;12.13;;;;;;;15.22;71.53;100040.44;10291307;28;20050;-75
2023/05/10 16:39:55;;;;;;;22.80;13.45;;;;;;;14.95;73.69;100046.91;10292543;28;20121;-74
2023/05/10 16:45:06;;;;;;;22.33;14.27;;;;;;;14.83;74.78;100049.00;10291044;28;20054;-74
2023/05/10 16:50:10;;;;;;;22.90;14.10;;;;;;;14.74;72.94;100065.38;10288397;28;20050;-75
2023/05/10 16:55:13;;;;;;;24.42;12.82;;;;;;;14.79;73.51;100073.84;10291823;28;20050;-75
2023/05/10 17:00:19;;;;;;;20.63;11.90;;;;;;;14.36;74.82;100075.53;10304134;28;20050;-76
2023/05/10 17:05:23;;;;;;;12.13;8.60;;;;;;;13.86;76.09;100073.38;10289829;28;20084;-75
2023/05/10 17:10:26;;;;;;;17.52;8.88;;;;;;;13.35;80.23;100075.63;10296040;28;20424;-75
2023/05/10 17:15:29;;;;;;;20.00;11.00;;;;;;;13.20;83.05;100075.31;10296465;28;20062;-75
2023/05/10 17:20:33;;;;;;;19.10;9.95;;;;;;;13.15;84.42;100069.50;10287422;28;20412;-75
2023/05/10 17:25:36;;;;;;;18.38;10.85;;;;;;;13.18;85.64;100069.19;10292724;28;20196;-74
2023/05/10 17:30:39;;;;;;;16.92;12.02;;;;;;;13.30;86.49;100077.09;10291388;28;20049;-74
2023/05/10 17:35:46;;;;;;;19.50;12.45;;;;;;;13.35;87.09;100075.63;10293154;28;20755;-75
2023/05/10 17:40:49;;;;;;;19.58;11.50;;;;;;;13.14;86.91;100086.69;10304116;28;20180;-74
2023/05/10 17:45:51;;;;;;;22.45;12.73;;;;;;;13.12;87.64;100088.69;10293717;28;20070;-75
2023/05/10 17:50:56;;;;;;;25.00;14.07;;;;;;;13.15;87.51;100092.94;10291684;28;20042;-74
2023/05/10 17:56:00;;;;;;;20.75;12.18;;;;;;;13.07;88.26;100092.81;10302500;28;20053;-75
2023/05/10 18:01:03;;;;;;;18.67;12.52;;;;;;;13.15;88.11;100099.16;10302928;28;20195;-75
2023/05/10 18:06:07;;;;;;;21.13;11.73;;;;;;;13.08;88.02;100108.84;10305182;28;20060;-75
2023/05/10 18:11:10;;;;;;;20.10;10.73;;;;;;;13.16;87.85;100116.19;10297979;28;20175;-75
2023/05/10 18:16:13;;;;;;;17.52;9.82;;;;;;;13.05;87.48;100114.53;10294691;28;20057;-75
2023/05/10 18:21:17;;;;;;;17.25;10.88;;;;;;;13.05;86.83;100123.47;10296648;28;20181;-74
2023/05/10 18:26:20;;;;;;;16.98;10.30;;;;;;;13.08;86.92;100119.63;10303309;28;20074;-75
2023/05/10 18:31:23;;;;;;;16.83;10.18;;;;;;;13.17;87.59;100121.44;10296927;28;20148;-75
2023/05/10 18:36:28;;;;;;;14.00;8.18;;;;;;;13.16;86.15;100140.47;10297899;28;20042;-74
2023/05/10 18:41:31;;;;;;;14.95;8.77;;;;;;;13.02;86.81;100136.38;10302955;28;20050;-75
2023/05/10 18:46:34;;;;;;;16.00;9.65;;;;;;;13.03;87.33;100147.03;10295934;28;20049;-75
2023/05/10 18:51:38;;;;;;;15.65;9.30;;;;;;;13.04;86.67;100154.13;10315161;28;20055;-75
2023/05/10 18:56:43;;;;;;;18.23;10.43;;;;;;;13.15;87.08;100154.94;10296171;28;20121;-76
2023/05/10 19:01:46;;;;;;;15.95;10.02;;;;;;;13.18;86.90;100166.28;10310031;28;20046;-76
2023/05/10 19:06:54;;;;;;;17.42;10.93;;;;;;;13.11;87.08;100172.41;10294234;28;20057;-76
2023/05/10 19:11:57;;;;;;;14.52;10.52;;;;;;;12.88;86.64;100174.59;10306647;28;20047;-76
2023/05/10 19:17:00;;;;;;;25.10;12.07;;;;;;;13.29;87.91;100178.75;10292710;28;20046;-76
2023/05/10 19:22:04;;;;;;;22.70;13.40;;;;;;;13.27;87.09;100180.72;10293276;28;20061;-76
2023/05/10 19:27:07;;;;;;;21.25;13.13;;;;;;;13.29;87.40;100194.94;10315148;28;20054;-76
2023/05/10 19:32:10;;;;;;;23.40;13.45;;;;;;;13.32;87.39;100189.25;10294608;28;20683;-76
2023/05/10 19:37:15;;;;;;;23.73;13.63;;;;;;;13.23;87.54;100193.66;10308229;28;20046;-75
2023/05/10 19:42:17;;;;;;;24.17;14.77;;;;;;;13.35;88.43;100180.00;10309213;28;20050;-76
2023/05/10 19:47:20;;;;;;;25.60;14.40;;;;;;;13.42;88.31;100186.56;10294829;28;20043;-76
2023/05/10 19:52:24;;;;;;;27.52;15.20;;;;;;;13.48;88.72;100185.97;10301270;28;20073;-76
2023/05/10 19:57:27;;;;;;;27.00;15.45;;;;;;;13.53;89.03;100188.22;10298772;28;20046;-76
2023/05/10 20:02:30;;;;;;;30.45;16.48;;;;;;;13.57;88.82;100185.06;10298323;28;20201;-76
2023/05/10 20:07:34;;;;;;;28.60;16.63;;;;;;;13.56;88.99;100191.47;10297589;28;20172;-76
2023/05/10 20:12:37;;;;;;;29.98;17.25;;;;;;;13.55;88.85;100191.59;10303699;28;20094;-76
2023/05/10 20:17:40;;;;;;;30.55;17.45;;;;;;;13.49;88.72;100185.81;10310798;28;21154;-75
2023/05/10 20:22:44;;;;;;;28.13;16.63;;;;;;;13.46;89.00;100188.78;10301866;28;20059;-75
2023/05/10 20:27:49;;;;;;;28.45;16.73;;;;;;;13.45;89.08;100179.00;10291376;28;20702;-75
2023/05/10 20:32:52;;;;;;;31.38;17.27;;;;;;;13.42;89.10;100186.56;10294166;28;20196;-75
2023/05/10 20:37:56;;;;;;;32.90;18.23;;;;;;;13.47;88.68;100176.19;10294379;28;20046;-75
2023/05/10 20:42:59;;;;;;;30.55;17.50;;;;;;;13.46;89.17;100180.69;10301196;28;21288;-75
2023/05/10 20:48:02;;;;;;;36.83;19.02;;;;;;;13.45;89.06;100173.63;10287797;28;20050;-75
2023/05/10 20:53:06;;;;;;;32.53;19.23;;;;;;;13.44;89.31;100181.88;10286716;28;20050;-75
2023/05/10 20:58:09;;;;;;;33.80;18.92;;;;;;;13.41;88.71;100172.22;10290042;28;20058;-75
2023/05/10 21:03:13;;;;;;;36.28;19.77;;;;;;;13.33;89.44;100177.47;10286804;28;20042;-75
2023/05/10 21:08:18;;;;;;;38.55;21.30;;;;;;;13.33;89.39;100182.00;10288886;28;20049;-76
2023/05/10 21:13:21;;;;;;;34.92;19.50;;;;;;;13.30;88.56;100195.78;10286530;28;21357;-75
2023/05/10 21:18:24;;;;;;;36.20;19.00;;;;;;;12.98;88.30;100197.84;10283927;28;20398;-76
2023/05/10 21:23:28;;;;;;;33.10;18.50;;;;;;;12.87;88.45;100195.31;10285804;28;20105;-76
2023/05/10 21:28:31;;;;;;;36.60;20.65;;;;;;;12.83;88.89;100194.75;10285603;28;20038;-76
2023/05/10 21:33:34;;;;;;;40.65;21.88;;;;;;;12.83;88.71;100202.84;10292305;28;20038;-75
2023/05/10 21:38:38;;;;;;;40.22;22.42;;;;;;;12.82;88.73;100192.19;10294773;28;20054;-76
2023/05/10 21:43:41;;;;;;;46.42;24.33;;;;;;;12.91;89.07;100190.47;10321460;28;20449;-76
2023/05/10 21:48:43;;;;;;;42.15;22.83;;;;;;;12.92;89.90;100186.81;10327258;28;20054;-76
2023/05/10 21:53:48;;;;;;;43.17;23.23;;;;;;;12.95;89.87;100192.75;10329495;28;20490;-76
2023/05/10 21:58:51;;;;;;;42.80;22.85;;;;;;;12.89;89.41;100195.16;10327645;28;20125;-76
2023/05/10 22:03:53;;;;;;;41.33;24.05;;;;;;;12.56;89.23;100195.47;10326854;28;20133;-76
2023/05/10 22:08:57;;;;;;;42.78;22.80;;;;;;;12.50;89.67;100198.72;10326940;28;20128;-76
2023/05/10 22:14:00;;;;;;;41.00;22.30;;;;;;;12.51;89.54;100195.06;10325365;28;20061;-76
2023/05/10 22:19:03;;;;;;;40.20;21.95;;;;;;;12.53;89.78;100202.97;10326044;28;20420;-76
2023/05/10 22:24:07;;;;;;;38.40;21.20;;;;;;;12.54;89.61;100207.38;10327305;28;20400;-76
2023/05/10 22:29:10;;;;;;;47.38;25.23;;;;;;;12.62;89.66;100207.53;10331380;28;20034;-76
2023/05/10 22:34:13;;;;;;;46.58;25.13;;;;;;;12.59;89.15;100214.06;10335794;28;20126;-76
2023/05/10 22:39:17;;;;;;;36.15;22.90;;;;;;;12.49;89.41;100221.28;10347776;28;20045;-76
2023/05/10 22:44:20;;;;;;;43.25;23.15;;;;;;;12.48;89.82;100227.66;10332935;28;20147;-76
2023/05/10 22:49:23;;;;;;;50.60;26.00;;;;;;;12.29;89.80;100223.09;10332878;28;20113;-76
2023/05/10 22:54:27;;;;;;;40.80;25.00;;;;;;;12.49;89.91;100221.28;10334147;28;20450;-76
2023/05/10 22:59:30;;;;;;;51.28;27.92;;;;;;;12.41;90.55;100231.06;10331651;28;20489;-76
2023/05/10 23:04:33;;;;;;;52.10;27.92;;;;;;;12.66;90.01;100232.34;10333260;28;20070;-76
2023/05/10 23:09:37;;;;;;;58.08;29.55;;;;;;;12.61;90.27;100232.75;10313374;28;20051;-76